Time;durP1;ratioP1;P1;durP2;ratioP2;P2;SDS_P1;SDS_P2;PMS_P1;PMS_P2;Temp;Humidity;BMP_temperature;BMP_pressure;BME280_temperature;BME280_humidity;BME280_pressure;Samples;Min_cycle;Max_cycle;Signal;HPM_P1;HPM_P2
2023/01/27 00:01:26;;;;;;;14.43;12.90;;;4.30;99.90;;;;;;5064844;28;20473;-69
2023/01/27 00:03:53;;;;;;;21.27;13.17;;;4.30;99.90;;;;;;5079024;28;20462;-69
2023/01/27 00:06:20;;;;;;;23.87;12.70;;;4.30;99.90;;;;;;5073462;28;20822;-69
2023/01/27 00:08:47;;;;;;;15.53;12.93;;;4.20;99.90;;;;;;5071684;28;20454;-69
2023/01/27 00:13:58;;;;;;;13.40;12.20;;;4.10;99.90;;;;;;5067702;28;20475;-70
2023/01/27 00:16:27;;;;;;;14.10;12.90;;;4.10;99.90;;;;;;5066669;28;20482;-69
2023/01/27 00:18:54;;;;;;;14.43;12.60;;;4.00;99.90;;;;;;5067938;28;20475;-69
2023/01/27 00:26:51;;;;;;;14.87;13.50;;;3.80;99.90;;;;;;5076402;28;20493;-69
2023/01/27 00:29:17;;;;;;;21.80;13.60;;;3.90;99.90;;;;;;5069307;28;20694;-69
2023/01/27 00:34:30;;;;;;;16.53;14.20;;;4.00;99.90;;;;;;5073141;28;20466;-69
2023/01/27 00:36:57;;;;;;;16.67;13.93;;;4.10;99.90;;;;;;5066283;28;20491;-70
2023/01/27 00:39:24;;;;;;;13.83;12.63;;;4.20;99.90;;;;;;5074692;28;20480;-69
2023/01/27 00:41:51;;;;;;;15.33;13.80;;;4.20;99.90;;;;;;5067234;28;20487;-69
2023/01/27 00:44:17;;;;;;;14.60;12.20;;;4.20;99.90;;;;;;5066336;28;20469;-69
2023/01/27 00:46:46;;;;;;;13.93;12.80;;;4.20;99.90;;;;;;5067158;28;20542;-69
2023/01/27 00:49:13;;;;;;;18.50;14.40;;;4.20;99.90;;;;;;5067464;28;21139;-70
2023/01/27 00:51:40;;;;;;;14.40;13.20;;;4.20;99.90;;;;;;5070977;28;20869;-69
2023/01/27 00:54:06;;;;;;;16.80;15.10;;;4.30;99.90;;;;;;5062020;28;20478;-69
2023/01/27 00:56:34;;;;;;;17.17;15.23;;;4.30;99.90;;;;;;5068957;28;21003;-69
2023/01/27 00:59:01;;;;;;;21.53;15.33;;;4.30;99.90;;;;;;5065653;28;20877;-69
2023/01/27 01:01:28;;;;;;;16.70;15.20;;;4.40;99.90;;;;;;5065599;28;20459;-69
2023/01/27 01:03:57;;;;;;;15.60;14.00;;;4.40;99.90;;;;;;5070846;28;20461;-69
2023/01/27 01:06:24;;;;;;;16.77;14.87;;;4.40;99.90;;;;;;5072889;28;20474;-69
2023/01/27 01:08:51;;;;;;;16.30;14.70;;;4.40;99.90;;;;;;5069051;28;20867;-69
2023/01/27 01:11:20;;;;;;;16.13;14.47;;;4.40;99.90;;;;;;5059516;28;20514;-69
2023/01/27 01:13:47;;;;;;;20.60;13.93;;;4.40;99.90;;;;;;5063475;28;20504;-69
2023/01/27 01:16:16;;;;;;;16.47;14.87;;;4.50;99.90;;;;;;5069143;28;20515;-68
2023/01/27 01:18:43;;;;;;;14.40;12.87;;;4.50;99.90;;;;;;5084254;28;20817;-69
2023/01/27 01:21:12;;;;;;;14.90;13.40;;;4.40;99.90;;;;;;5075908;28;20458;-69
2023/01/27 01:23:41;;;;;;;15.93;13.03;;;4.50;99.90;;;;;;5074558;28;20820;-69
2023/01/27 01:26:10;;;;;;;14.43;13.10;;;4.50;99.90;;;;;;5071329;28;20463;-69
2023/01/27 01:28:38;;;;;;;15.23;13.93;;;4.50;99.90;;;;;;5075901;28;20648;-69
2023/01/27 01:31:06;;;;;;;13.73;12.50;;;4.50;99.90;;;;;;5068727;28;20472;-69
2023/01/27 01:33:33;;;;;;;12.93;11.70;;;4.60;99.90;;;;;;5073126;28;20975;-69
2023/01/27 01:36:05;;;;;;;14.53;13.23;;;4.50;99.90;;;;;;5073346;28;20465;-69
2023/01/27 01:38:34;;;;;;;14.10;12.90;;;4.60;99.90;;;;;;5067739;28;20489;-68
2023/01/27 01:41:01;;;;;;;13.60;12.40;;;4.60;99.90;;;;;;5070274;28;20517;-69
2023/01/27 01:43:28;;;;;;;11.60;10.73;;;4.60;99.90;;;;;;5071659;28;20598;-69
2023/01/27 01:45:56;;;;;;;11.90;10.90;;;4.60;99.90;;;;;;5066417;28;20477;-69
2023/01/27 01:48:32;;;;;;;13.50;11.53;;;4.50;99.90;;;;;;5067935;28;20475;-69
2023/01/27 01:51:01;;;;;;;13.33;12.23;;;4.50;99.90;;;;;;5072280;28;20540;-69
2023/01/27 01:53:36;;;;;;;12.73;11.53;;;4.50;99.90;;;;;;5069148;28;20478;-69
2023/01/27 01:56:08;;;;;;;13.33;11.40;;;4.40;99.90;;;;;;5069724;28;20456;-70
2023/01/27 01:58:37;;;;;;;12.43;11.23;;;4.40;99.90;;;;;;5075167;28;20599;-69
2023/01/27 02:01:06;;;;;;;13.77;10.97;;;4.40;99.90;;;;;;5066207;28;20467;-69
2023/01/27 02:03:38;;;;;;;12.80;11.60;;;4.40;99.90;;;;;;5074389;28;20461;-69
2023/01/27 02:06:05;;;;;;;12.90;11.27;;;4.40;99.90;;;;;;5068694;28;20466;-69
2023/01/27 02:08:38;;;;;;;13.33;11.97;;;4.50;99.90;;;;;;5067923;28;21054;-69
2023/01/27 02:11:05;;;;;;;12.47;11.33;;;4.40;99.90;;;;;;5065855;28;20766;-70
2023/01/27 02:13:32;;;;;;;15.70;11.67;;;4.40;99.90;;;;;;5069943;28;20821;-69
2023/01/27 02:15:59;;;;;;;17.47;12.17;;;4.40;99.90;;;;;;5065716;28;20469;-69
2023/01/27 02:18:27;;;;;;;12.87;11.77;;;4.40;99.90;;;;;;5075304;28;20486;-69
2023/01/27 02:20:55;;;;;;;13.13;12.13;;;4.40;99.90;;;;;;5068003;28;20995;-69
2023/01/27 02:23:35;;;;;;;15.13;13.40;;;4.40;99.90;;;;;;5070709;28;20868;-69
2023/01/27 02:26:08;;;;;;;14.10;12.73;;;4.40;99.90;;;;;;5077773;28;20462;-70
2023/01/27 02:28:34;;;;;;;15.30;14.00;;;4.50;99.90;;;;;;5071824;28;20469;-69
2023/01/27 02:31:01;;;;;;;14.57;13.20;;;4.50;99.90;;;;;;5069494;28;20453;-69
2023/01/27 02:33:29;;;;;;;23.80;13.30;;;4.50;99.90;;;;;;5074300;28;20927;-69
2023/01/27 02:36:02;;;;;;;15.07;13.60;;;4.50;99.90;;;;;;5072952;28;21002;-69
2023/01/27 02:38:33;;;;;;;19.00;14.00;;;4.50;99.90;;;;;;5055882;28;20494;-69
2023/01/27 02:41:07;;;;;;;22.00;13.87;;;4.50;99.90;;;;;;5067377;28;20490;-69
2023/01/27 02:43:34;;;;;;;22.13;13.77;;;4.60;99.90;;;;;;5075124;28;20948;-69
2023/01/27 02:46:01;;;;;;;17.43;15.27;;;4.50;99.90;;;;;;5067876;28;20455;-69
2023/01/27 02:48:28;;;;;;;19.00;15.07;;;4.50;99.90;;;;;;5068600;28;20471;-69
2023/01/27 02:50:56;;;;;;;16.30;14.70;;;4.40;99.90;;;;;;5071887;28;20458;-69
2023/01/27 02:53:22;;;;;;;28.17;15.63;;;4.40;99.90;;;;;;5068360;28;20485;-69
2023/01/27 02:55:49;;;;;;;23.73;16.17;;;4.30;99.90;;;;;;5066714;28;20492;-69
2023/01/27 02:58:17;;;;;;;22.70;17.47;;;4.40;99.90;;;;;;5078207;28;20558;-69
2023/01/27 03:00:44;;;;;;;27.37;17.53;;;4.30;99.90;;;;;;5062889;28;20478;-69
2023/01/27 03:03:11;;;;;;;25.03;19.10;;;4.30;99.90;;;;;;5069159;28;20462;-69
2023/01/27 03:05:38;;;;;;;23.63;17.87;;;4.20;99.90;;;;;;5065761;28;20893;-69
2023/01/27 03:08:05;;;;;;;19.20;16.77;;;4.20;99.90;;;;;;5073309;28;20893;-69
2023/01/27 03:10:32;;;;;;;26.60;19.17;;;4.10;99.90;;;;;;5067844;28;20474;-69
2023/01/27 03:12:59;;;;;;;22.43;19.73;;;4.10;99.90;;;;;;5075042;28;20523;-69
2023/01/27 03:18:14;;;;;;;20.90;17.73;;;4.00;99.90;;;;;;5072328;28;20961;-69
2023/01/27 03:20:42;;;;;;;20.10;17.80;;;3.90;99.90;;;;;;5076054;28;20451;-69
2023/01/27 03:23:09;;;;;;;20.13;17.97;;;4.00;99.90;;;;;;5065820;28;20460;-69
2023/01/27 03:25:40;;;;;;;25.67;17.20;;;3.90;99.90;;;;;;5074059;28;20469;-70
2023/01/27 03:28:06;;;;;;;19.07;16.30;;;3.90;99.90;;;;;;5073917;28;20447;-69
2023/01/27 03:30:34;;;;;;;24.20;14.83;;;3.80;99.90;;;;;;5065198;28;20781;-69
2023/01/27 03:33:02;;;;;;;20.10;15.57;;;3.80;99.90;;;;;;5065468;28;20463;-69
2023/01/27 03:35:33;;;;;;;21.47;16.90;;;3.80;99.90;;;;;;5067114;28;20454;-69
2023/01/27 03:46:18;;;;;;;18.20;16.27;;;3.60;99.90;;;;;;5063356;28;20474;-69
2023/01/27 03:48:48;;;;;;;23.03;17.27;;;3.50;99.90;;;;;;5063756;28;20582;-69
2023/01/27 03:51:15;;;;;;;21.60;15.00;;;3.50;99.90;;;;;;5063704;28;20893;-69
2023/01/27 03:53:42;;;;;;;21.67;14.43;;;3.40;99.90;;;;;;5068671;28;20483;-69
2023/01/27 03:56:09;;;;;;;20.87;14.37;;;3.40;99.90;;;;;;5069444;28;20470;-69
2023/01/27 03:58:37;;;;;;;23.77;15.97;;;3.40;99.90;;;;;;5068077;28;20850;-69
2023/01/27 04:01:05;;;;;;;21.63;14.43;;;3.40;99.90;;;;;;5067705;28;20474;-69
2023/01/27 04:09:07;;;;;;;16.57;14.63;;;3.30;99.90;;;;;;5064839;28;20536;-69
2023/01/27 04:14:19;;;;;;;20.23;15.50;;;3.30;99.90;;;;;;5075014;28;20465;-70
2023/01/27 04:16:47;;;;;;;15.67;13.97;;;3.30;99.90;;;;;;5073543;28;20466;-69
2023/01/27 04:19:15;;;;;;;15.87;14.27;;;3.30;99.90;;;;;;5067147;28;20490;-69
2023/01/27 04:21:42;;;;;;;16.50;14.73;;;3.40;99.90;;;;;;5068866;28;20537;-69
2023/01/27 04:24:16;;;;;;;14.50;13.03;;;3.40;99.90;;;;;;5062680;28;21016;-69
2023/01/27 04:26:44;;;;;;;14.57;13.17;;;3.30;99.90;;;;;;5074639;28;20831;-69
2023/01/27 04:29:13;;;;;;;16.17;13.47;;;3.30;99.90;;;;;;5067011;28;20455;-69
2023/01/27 04:31:40;;;;;;;14.90;13.60;;;3.40;99.90;;;;;;5070111;28;20557;-70
2023/01/27 04:34:07;;;;;;;17.60;14.20;;;3.50;99.90;;;;;;5058149;28;20459;-70
2023/01/27 04:36:35;;;;;;;15.17;13.60;;;3.50;99.90;;;;;;5073018;28;20458;-70
2023/01/27 04:39:03;;;;;;;15.53;14.03;;;3.40;99.90;;;;;;5073075;28;20540;-70
2023/01/27 04:41:30;;;;;;;17.40;14.50;;;3.40;99.90;;;;;;5057527;28;20886;-70
2023/01/27 04:43:57;;;;;;;16.80;14.30;;;3.40;99.90;;;;;;5077111;28;20464;-70
2023/01/27 04:46:24;;;;;;;14.70;12.77;;;3.50;99.90;;;;;;5067681;28;20818;-69
2023/01/27 04:48:51;;;;;;;14.97;13.47;;;3.50;99.90;;;;;;5072549;28;20463;-70
2023/01/27 04:51:18;;;;;;;18.77;14.13;;;3.50;99.90;;;;;;5071193;28;20466;-70
2023/01/27 04:53:46;;;;;;;15.07;13.50;;;3.60;99.90;;;;;;5073664;28;20487;-70
2023/01/27 04:56:22;;;;;;;21.23;15.30;;;3.60;99.90;;;;;;5074194;28;20649;-70
2023/01/27 04:58:49;;;;;;;22.43;15.83;;;3.60;99.90;;;;;;5067242;28;20498;-69
2023/01/27 05:01:16;;;;;;;17.83;15.30;;;3.60;99.90;;;;;;5072918;28;20824;-70
2023/01/27 05:03:43;;;;;;;20.40;16.50;;;3.50;99.90;;;;;;5067340;28;20459;-70
2023/01/27 05:06:10;;;;;;;20.80;18.33;;;3.60;99.90;;;;;;5075441;28;20466;-70
2023/01/27 05:08:37;;;;;;;23.10;18.43;;;3.60;99.90;;;;;;5062081;28;20473;-70
2023/01/27 05:11:06;;;;;;;25.40;17.23;;;3.60;99.90;;;;;;5069881;28;20462;-69
2023/01/27 05:13:33;;;;;;;21.00;17.00;;;3.60;99.90;;;;;;5067047;28;21022;-70
2023/01/27 05:16:08;;;;;;;21.40;16.70;;;3.40;99.90;;;;;;5068072;28;20822;-70
2023/01/27 05:18:35;;;;;;;21.43;16.47;;;3.30;99.90;;;;;;5069958;28;20497;-70
2023/01/27 05:21:03;;;;;;;22.10;17.60;;;3.20;99.90;;;;;;5066096;28;20462;-70
2023/01/27 05:23:36;;;;;;;18.80;16.63;;;3.20;99.90;;;;;;5070878;28;20471;-69
2023/01/27 05:26:07;;;;;;;23.47;18.17;;;3.10;99.90;;;;;;5070177;28;20555;-70
2023/01/27 05:28:35;;;;;;;21.63;17.40;;;3.10;99.90;;;;;;5069381;28;20470;-69
2023/01/27 05:31:05;;;;;;;25.70;17.33;;;3.10;99.90;;;;;;5074145;28;20470;-69
2023/01/27 05:33:31;;;;;;;24.33;17.80;;;3.20;99.90;;;;;;5068398;28;20462;-70
2023/01/27 05:36:00;;;;;;;24.20;18.23;;;3.10;99.90;;;;;;5069793;28;20462;-70
2023/01/27 05:38:27;;;;;;;25.20;19.60;;;3.10;99.90;;;;;;5073575;28;20565;-70
2023/01/27 05:40:59;;;;;;;20.20;16.47;;;3.20;99.90;;;;;;5075186;28;20492;-70
2023/01/27 05:43:27;;;;;;;24.03;17.53;;;3.20;99.90;;;;;;5068235;28;21061;-70
2023/01/27 05:46:02;;;;;;;22.20;17.77;;;3.10;99.90;;;;;;5067181;28;20958;-70
2023/01/27 05:48:28;;;;;;;22.50;18.27;;;3.10;99.90;;;;;;5074714;28;20616;-70
2023/01/27 05:50:56;;;;;;;24.57;17.67;;;3.00;99.90;;;;;;5078059;28;20496;-70
2023/01/27 05:53:23;;;;;;;27.67;17.00;;;2.90;99.90;;;;;;5071271;28;20899;-70
2023/01/27 05:55:50;;;;;;;23.83;17.57;;;2.90;99.90;;;;;;5072523;28;20459;-70
2023/01/27 05:58:17;;;;;;;30.60;17.53;;;2.80;99.90;;;;;;5070828;28;20474;-70
2023/01/27 06:00:46;;;;;;;20.27;17.13;;;2.80;99.90;;;;;;5071645;28;20466;-69
2023/01/27 06:03:13;;;;;;;22.93;18.77;;;2.80;99.90;;;;;;5067830;28;20776;-69
2023/01/27 06:05:50;;;;;;;26.07;16.97;;;2.80;99.90;;;;;;5076422;28;20462;-69
2023/01/27 06:08:16;;;;;;;20.33;15.80;;;2.90;99.90;;;;;;5069711;28;20463;-69
2023/01/27 06:10:44;;;;;;;21.17;17.40;;;2.90;99.90;;;;;;5070669;28;20816;-69
2023/01/27 06:13:11;;;;;;;22.07;17.10;;;3.00;99.90;;;;;;5071523;28;20549;-70
2023/01/27 06:15:41;;;;;;;24.30;17.63;;;3.10;99.90;;;;;;5065235;28;20469;-70
2023/01/27 06:18:09;;;;;;;22.67;17.00;;;3.10;99.90;;;;;;5062253;28;20461;-69
2023/01/27 06:20:37;;;;;;;27.13;16.70;;;3.10;99.90;;;;;;5070082;28;20453;-71
2023/01/27 06:23:04;;;;;;;25.77;16.00;;;3.10;99.90;;;;;;5071705;28;20459;-70
2023/01/27 06:25:35;;;;;;;20.37;17.37;;;3.10;99.90;;;;;;5071264;28;20466;-69
2023/01/27 06:28:02;;;;;;;24.63;18.93;;;3.00;99.90;;;;;;5075187;28;20454;-69
2023/01/27 06:30:29;;;;;;;26.73;17.30;;;3.00;99.90;;;;;;5077471;28;20463;-69
2023/01/27 06:32:56;;;;;;;22.37;18.53;;;3.00;99.90;;;;;;5070380;28;21590;-69
2023/01/27 06:35:25;;;;;;;28.00;19.80;;;3.00;99.90;;;;;;5071240;28;20470;-69
2023/01/27 06:37:51;;;;;;;23.83;17.70;;;3.00;99.90;;;;;;5076333;28;21024;-69
2023/01/27 06:40:18;;;;;;;24.43;16.70;;;3.10;99.90;;;;;;5069678;28;21059;-69
2023/01/27 06:42:46;;;;;;;26.13;19.40;;;3.20;99.90;;;;;;5069341;28;20469;-68
2023/01/27 06:45:13;;;;;;;29.00;18.43;;;3.20;99.90;;;;;;5071734;28;20457;-68
2023/01/27 06:47:40;;;;;;;26.90;17.40;;;3.20;99.90;;;;;;5066882;28;20471;-68
2023/01/27 06:50:09;;;;;;;26.53;19.73;;;3.20;99.90;;;;;;5064892;28;20463;-69
2023/01/27 06:52:37;;;;;;;28.43;21.27;;;3.10;99.90;;;;;;5064488;28;20495;-68
2023/01/27 06:55:05;;;;;;;22.37;19.17;;;3.10;99.90;;;;;;5067078;28;20466;-69
2023/01/27 06:57:32;;;;;;;25.73;18.93;;;3.10;99.90;;;;;;5067100;28;20467;-69
2023/01/27 06:59:58;;;;;;;25.83;20.00;;;3.10;99.90;;;;;;5067994;28;20501;-69
2023/01/27 07:02:26;;;;;;;19.67;16.67;;;3.10;99.90;;;;;;5065724;28;20546;-68
2023/01/27 07:04:53;;;;;;;24.97;19.47;;;3.10;99.90;;;;;;5071919;28;20466;-68
2023/01/27 07:07:20;;;;;;;22.97;18.93;;;3.10;99.90;;;;;;5073582;28;20833;-69
2023/01/27 07:09:48;;;;;;;24.87;17.90;;;3.10;99.90;;;;;;5061748;28;20980;-69
2023/01/27 07:12:15;;;;;;;26.93;19.97;;;3.20;99.90;;;;;;5069363;28;20463;-69
2023/01/27 07:14:42;;;;;;;23.57;17.50;;;3.30;99.90;;;;;;5073855;28;20978;-69
2023/01/27 07:17:08;;;;;;;22.97;18.10;;;3.30;99.90;;;;;;5073763;28;20817;-69
2023/01/27 07:19:35;;;;;;;25.53;18.50;;;3.30;99.90;;;;;;5067593;28;20512;-68
2023/01/27 07:22:02;;;;;;;24.00;18.70;;;3.40;99.90;;;;;;5064214;28;20814;-69
2023/01/27 07:24:29;;;;;;;21.53;17.20;;;3.40;99.90;;;;;;5061687;28;20466;-69
2023/01/27 07:26:57;;;;;;;21.43;16.33;;;3.50;99.90;;;;;;5068700;28;20507;-69
2023/01/27 07:29:24;;;;;;;23.07;17.37;;;3.50;99.90;;;;;;5066848;28;21059;-69
2023/01/27 07:31:51;;;;;;;26.33;18.70;;;3.40;99.90;;;;;;5069794;28;20554;-69
2023/01/27 07:34:18;;;;;;;18.43;16.27;;;3.40;99.90;;;;;;5074025;28;20550;-69
2023/01/27 07:36:45;;;;;;;23.40;17.10;;;3.50;99.90;;;;;;5068332;28;20950;-69
2023/01/27 07:39:13;;;;;;;23.80;17.53;;;3.40;99.90;;;;;;5070229;28;20505;-69
2023/01/27 07:41:39;;;;;;;22.00;16.70;;;3.40;99.90;;;;;;5064363;28;20451;-69
2023/01/27 07:44:08;;;;;;;22.17;16.70;;;3.30;99.90;;;;;;5065730;28;20470;-69
2023/01/27 07:46:35;;;;;;;21.33;18.50;;;3.30;99.90;;;;;;5063141;28;20470;-69
2023/01/27 07:49:02;;;;;;;22.20;16.40;;;3.20;99.90;;;;;;5078586;28;20459;-68
2023/01/27 07:51:29;;;;;;;21.50;17.40;;;3.20;99.90;;;;;;5065795;28;20470;-69
2023/01/27 07:53:56;;;;;;;20.93;17.90;;;3.20;99.90;;;;;;5068966;28;20851;-69
2023/01/27 07:56:23;;;;;;;20.00;17.30;;;3.10;99.90;;;;;;5071396;28;20457;-69
2023/01/27 07:58:53;;;;;;;21.07;17.83;;;3.10;99.90;;;;;;5071572;28;20879;-69
2023/01/27 08:01:21;;;;;;;20.43;17.57;;;3.10;99.90;;;;;;5068584;28;20498;-70
2023/01/27 08:03:48;;;;;;;25.03;18.13;;;3.10;99.90;;;;;;5071080;28;20461;-69
2023/01/27 08:06:15;;;;;;;21.20;16.77;;;3.30;99.90;;;;;;5062642;28;20981;-69
2023/01/27 08:08:42;;;;;;;20.07;16.30;;;3.30;99.90;;;;;;5068122;28;20526;-69
2023/01/27 08:11:12;;;;;;;21.63;17.40;;;3.40;99.90;;;;;;5054698;28;20470;-69
2023/01/27 08:13:39;;;;;;;17.97;15.93;;;3.40;99.90;;;;;;5069692;28;20481;-69
2023/01/27 08:16:08;;;;;;;26.67;16.37;;;3.40;99.90;;;;;;5062951;28;20482;-69
2023/01/27 08:18:36;;;;;;;19.63;15.37;;;3.50;99.90;;;;;;5066039;28;20563;-69
2023/01/27 08:21:04;;;;;;;20.33;15.87;;;3.40;99.90;;;;;;5062407;28;20489;-69
2023/01/27 08:23:32;;;;;;;19.13;15.97;;;3.50;99.90;;;;;;5060061;28;20465;-69
2023/01/27 08:26:01;;;;;;;23.63;14.60;;;3.40;99.90;;;;;;5056118;28;20463;-69
2023/01/27 08:28:29;;;;;;;18.27;15.70;;;3.50;99.90;;;;;;5061964;28;20471;-69
2023/01/27 08:31:04;;;;;;;20.37;15.90;;;3.60;99.90;;;;;;5066105;28;20463;-69
2023/01/27 08:33:31;;;;;;;17.63;14.77;;;3.60;99.90;;;;;;5064516;28;20961;-69
2023/01/27 08:36:03;;;;;;;18.97;16.40;;;3.80;99.90;;;;;;5053889;28;20486;-69
2023/01/27 08:38:30;;;;;;;16.87;15.10;;;3.90;99.90;;;;;;5062814;28;20720;-69
2023/01/27 08:41:12;;;;;;;20.33;17.03;;;3.90;99.90;;;;;;5064576;28;21024;-70
2023/01/27 08:43:39;;;;;;;19.57;16.03;;;3.90;99.90;;;;;;5059435;28;20469;-70
2023/01/27 08:46:06;;;;;;;16.80;15.13;;;4.00;99.90;;;;;;5063012;28;21005;-69
2023/01/27 08:48:34;;;;;;;17.63;15.03;;;4.00;99.90;;;;;;5057985;28;20960;-69
2023/01/27 08:51:03;;;;;;;19.70;16.43;;;4.10;99.90;;;;;;5062464;28;20861;-69
2023/01/27 08:53:31;;;;;;;22.53;17.07;;;4.20;99.90;;;;;;5058380;28;20891;-69
2023/01/27 08:56:02;;;;;;;20.20;16.20;;;4.30;99.90;;;;;;5059284;28;20589;-69
2023/01/27 08:58:28;;;;;;;19.73;16.43;;;4.30;99.90;;;;;;5069682;28;20739;-69
2023/01/27 09:00:55;;;;;;;18.83;16.10;;;4.30;99.90;;;;;;5066781;28;20541;-69
2023/01/27 09:03:23;;;;;;;18.33;15.47;;;4.40;99.90;;;;;;5062902;28;20485;-69
2023/01/27 09:05:50;;;;;;;21.90;17.20;;;4.40;99.90;;;;;;5064288;28;20498;-70
2023/01/27 09:08:18;;;;;;;20.67;16.23;;;4.50;99.90;;;;;;5065607;28;20824;-69
2023/01/27 09:10:45;;;;;;;16.60;15.00;;;4.60;99.90;;;;;;5060367;28;20467;-69
2023/01/27 09:13:12;;;;;;;17.07;15.20;;;4.60;99.90;;;;;;5072596;28;21250;-69
2023/01/27 09:15:40;;;;;;;17.97;16.17;;;4.70;99.90;;;;;;5062098;28;20471;-69
2023/01/27 09:18:07;;;;;;;21.20;17.10;;;4.60;99.90;;;;;;5060408;28;20489;-69
2023/01/27 09:20:35;;;;;;;19.10;17.20;;;4.70;99.90;;;;;;5058298;28;20501;-70
2023/01/27 09:23:03;;;;;;;17.23;15.50;;;4.80;99.90;;;;;;5059831;28;20507;-69
2023/01/27 09:25:31;;;;;;;19.90;18.10;;;4.90;99.90;;;;;;5065493;28;20455;-69
2023/01/27 09:28:00;;;;;;;23.20;19.20;;;4.90;99.90;;;;;;5057624;28;20846;-69
2023/01/27 09:30:28;;;;;;;22.60;20.20;;;5.00;99.90;;;;;;5058726;28;20503;-69
2023/01/27 09:32:59;;;;;;;19.40;17.70;;;5.00;99.90;;;;;;5063147;28;20478;-69
2023/01/27 09:35:26;;;;;;;21.70;19.50;;;4.90;99.90;;;;;;5065532;28;20471;-69
2023/01/27 09:37:56;;;;;;;22.57;20.33;;;5.00;99.90;;;;;;5070705;28;20471;-69
2023/01/27 09:40:32;;;;;;;21.70;19.63;;;5.10;99.90;;;;;;5069156;28;20495;-69
2023/01/27 09:43:14;;;;;;;22.97;20.57;;;5.10;99.90;;;;;;5071310;28;20464;-69
2023/01/27 09:45:57;;;;;;;22.00;19.80;;;5.10;99.90;;;;;;5065586;28;20470;-69
2023/01/27 09:48:41;;;;;;;21.87;19.77;;;5.00;99.90;;;;;;5063266;28;20870;-69
2023/01/27 09:51:16;;;;;;;23.80;21.40;;;5.00;99.90;;;;;;5073945;28;20471;-69
2023/01/27 09:54:22;;;;;;;25.80;23.03;;;4.90;99.90;;;;;;5070990;28;20489;-69
2023/01/27 09:56:57;;;;;;;20.77;18.97;;;5.00;99.90;;;;;;4977254;28;20455;-69
2023/01/27 09:59:43;;;;;;;19.77;17.87;;;4.90;99.90;;;;;;5055686;28;20852;-69
2023/01/27 10:02:22;;;;;;;19.00;17.20;;;4.90;99.90;;;;;;5067299;28;20523;-69
2023/01/27 10:05:11;;;;;;;21.07;18.90;;;5.00;99.90;;;;;;5067839;28;20575;-70
2023/01/27 10:07:51;;;;;;;22.27;20.07;;;5.00;99.90;;;;;;5063358;28;20964;-70
2023/01/27 10:10:33;;;;;;;20.87;19.00;;;5.10;99.90;;;;;;5062125;28;20866;-69
2023/01/27 10:13:13;;;;;;;21.20;19.20;;;5.10;99.90;;;;;;5064458;28;20462;-69
2023/01/27 10:15:57;;;;;;;21.53;19.50;;;5.10;99.90;;;;;;5059001;28;20485;-69
2023/01/27 10:18:57;;;;;;;21.90;19.73;;;5.20;99.90;;;;;;5058249;28;20462;-69
2023/01/27 10:21:37;;;;;;;22.43;20.30;;;5.20;99.90;;;;;;5063460;28;20490;-69
2023/01/27 10:24:11;;;;;;;20.83;19.00;;;5.30;99.90;;;;;;5060441;28;22095;-70
2023/01/27 10:26:41;;;;;;;22.20;20.20;;;5.30;99.90;;;;;;5058965;28;20744;-69
2023/01/27 10:29:19;;;;;;;21.70;19.47;;;5.40;99.90;;;;;;5060490;28;20463;-69
2023/01/27 10:31:53;;;;;;;20.57;18.77;;;5.50;99.90;;;;;;5065402;28;20482;-69
2023/01/27 10:34:28;;;;;;;21.90;19.60;;;5.40;99.90;;;;;;5060643;28;20461;-69
2023/01/27 10:37:04;;;;;;;21.70;19.40;;;5.50;99.90;;;;;;5061759;28;21344;-69
2023/01/27 10:39:42;;;;;;;21.90;19.80;;;5.50;99.90;;;;;;5055262;28;20618;-69
2023/01/27 10:42:15;;;;;;;21.57;19.70;;;5.60;99.90;;;;;;5060413;28;20516;-69
2023/01/27 10:44:55;;;;;;;22.40;20.30;;;5.60;99.90;;;;;;5064644;28;20466;-69
2023/01/27 10:47:34;;;;;;;20.27;18.43;;;5.50;99.90;;;;;;5059684;28;20549;-69
2023/01/27 10:50:07;;;;;;;21.73;19.53;;;5.40;99.90;;;;;;5069006;28;20472;-69
2023/01/27 10:52:38;;;;;;;22.63;20.47;;;5.30;99.90;;;;;;5071831;28;20485;-69
2023/01/27 10:55:14;;;;;;;22.07;20.17;;;5.50;99.90;;;;;;5069123;28;20544;-69
2023/01/27 10:57:47;;;;;;;21.33;19.37;;;5.70;99.90;;;;;;5063846;28;20469;-69
2023/01/27 11:00:24;;;;;;;20.40;18.63;;;5.70;99.90;;;;;;5056357;28;20684;-69
2023/01/27 11:03:02;;;;;;;21.53;19.57;;;5.70;99.90;;;;;;5063186;28;20468;-69
2023/01/27 11:05:33;;;;;;;22.60;20.50;;;5.80;99.90;;;;;;5059646;28;20553;-70
2023/01/27 11:08:03;;;;;;;20.63;18.73;;;5.70;99.90;;;;;;5056484;28;20466;-69
2023/01/27 11:10:36;;;;;;;22.07;20.20;;;5.60;99.90;;;;;;5059770;28;20473;-69
2023/01/27 11:13:05;;;;;;;20.73;18.93;;;5.70;99.90;;;;;;5067620;28;20461;-69
2023/01/27 11:15:34;;;;;;;21.07;19.27;;;5.60;99.90;;;;;;5068098;28;20495;-69
2023/01/27 11:18:05;;;;;;;19.87;18.13;;;5.60;99.90;;;;;;5068931;28;20459;-69
2023/01/27 11:20:35;;;;;;;19.10;17.50;;;5.70;99.90;;;;;;5064040;28;20816;-69
2023/01/27 11:23:09;;;;;;;18.77;17.23;;;5.60;99.90;;;;;;5064221;28;20955;-70
2023/01/27 11:25:45;;;;;;;19.13;17.53;;;5.60;99.90;;;;;;5068169;28;20457;-69
2023/01/27 11:28:25;;;;;;;21.53;19.53;;;5.60;99.90;;;;;;5064833;28;20802;-69
2023/01/27 11:31:03;;;;;;;19.70;18.00;;;5.50;99.90;;;;;;5065993;28;20469;-69
2023/01/27 11:33:39;;;;;;;19.67;17.97;;;5.50;99.90;;;;;;5060110;28;20467;-69
2023/01/27 11:36:08;;;;;;;17.30;15.70;;;5.60;99.90;;;;;;5063292;28;20454;-69
2023/01/27 11:38:36;;;;;;;20.00;18.23;;;5.70;99.90;;;;;;5063629;28;21060;-69
2023/01/27 11:41:03;;;;;;;18.57;17.00;;;5.60;99.90;;;;;;5067869;28;20500;-69
2023/01/27 11:43:30;;;;;;;18.70;17.27;;;5.80;99.90;;;;;;5063967;28;20696;-69
2023/01/27 11:46:04;;;;;;;18.60;17.00;;;5.60;99.90;;;;;;5065583;28;20473;-69
2023/01/27 11:48:39;;;;;;;19.40;17.80;;;5.50;99.90;;;;;;5058397;28;20496;-69
2023/01/27 11:51:13;;;;;;;16.97;15.60;;;5.50;99.90;;;;;;5060075;28;20660;-69
2023/01/27 11:53:41;;;;;;;17.00;15.80;;;5.60;99.90;;;;;;5060701;28;20504;-69
2023/01/27 11:56:14;;;;;;;18.10;16.60;;;5.60;99.90;;;;;;5058853;28;20814;-69
2023/01/27 11:58:47;;;;;;;17.97;16.57;;;5.50;99.90;;;;;;5074066;28;20454;-69
2023/01/27 12:01:18;;;;;;;17.70;16.27;;;5.40;99.90;;;;;;5060224;28;20981;-69
2023/01/27 12:03:52;;;;;;;18.33;16.73;;;5.40;99.90;;;;;;5060622;28;20503;-69
2023/01/27 12:06:28;;;;;;;17.37;15.87;;;5.40;99.90;;;;;;5063692;28;20463;-69
2023/01/27 12:08:55;;;;;;;18.97;17.40;;;5.40;99.90;;;;;;5063029;28;20823;-69
2023/01/27 12:11:24;;;;;;;17.83;16.27;;;5.40;99.90;;;;;;5066248;28;20476;-69
2023/01/27 12:13:56;;;;;;;18.77;17.07;;;5.30;99.90;;;;;;5063464;28;20462;-69
2023/01/27 12:16:27;;;;;;;16.63;15.23;;;5.40;99.90;;;;;;5063163;28;20504;-69
2023/01/27 12:18:59;;;;;;;16.70;15.00;;;5.40;99.90;;;;;;5062939;28;20455;-69
2023/01/27 12:21:40;;;;;;;18.10;16.60;;;5.30;99.90;;;;;;5055504;28;20932;-69
2023/01/27 12:24:17;;;;;;;17.60;16.20;;;5.30;99.90;;;;;;5057996;28;20467;-69
2023/01/27 12:26:45;;;;;;;18.50;16.80;;;5.40;99.90;;;;;;5064291;28;20470;-70
2023/01/27 12:29:19;;;;;;;18.80;17.20;;;5.30;99.90;;;;;;5066451;28;20595;-69
2023/01/27 12:31:51;;;;;;;17.67;15.60;;;5.50;99.90;;;;;;5067860;28;20459;-69
2023/01/27 12:34:24;;;;;;;18.30;16.60;;;5.50;99.90;;;;;;5066718;28;20883;-69
2023/01/27 12:36:52;;;;;;;19.50;17.47;;;5.60;99.90;;;;;;5057620;28;20463;-69
2023/01/27 12:39:35;;;;;;;16.93;15.57;;;5.70;99.90;;;;;;5065926;28;20516;-69
2023/01/27 12:42:03;;;;;;;18.23;16.67;;;5.70;99.90;;;;;;5058843;28;20496;-69
2023/01/27 12:44:41;;;;;;;18.30;16.37;;;5.90;99.90;;;;;;5069954;28;20820;-69
2023/01/27 12:47:23;;;;;;;18.63;17.03;;;5.80;99.90;;;;;;5060238;28;20498;-69
2023/01/27 12:49:50;;;;;;;19.30;17.50;;;5.90;99.90;;;;;;5064203;28;20518;-70
2023/01/27 12:52:19;;;;;;;16.83;15.53;;;5.90;99.90;;;;;;5068070;28;20469;-69
2023/01/27 12:54:46;;;;;;;18.60;17.00;;;5.80;99.90;;;;;;5062386;28;20477;-69
2023/01/27 12:57:18;;;;;;;20.13;18.37;;;5.80;99.90;;;;;;5061208;28;20468;-69
2023/01/27 12:59:50;;;;;;;19.27;17.47;;;5.80;99.90;;;;;;5062852;28;20966;-69
2023/01/27 13:02:20;;;;;;;18.87;17.37;;;5.90;99.90;;;;;;5060708;28;20497;-69
2023/01/27 13:04:52;;;;;;;20.27;18.27;;;6.00;99.90;;;;;;5063163;28;20607;-69
2023/01/27 13:07:22;;;;;;;20.17;18.40;;;6.00;99.90;;;;;;5058795;28;20459;-70
2023/01/27 13:09:53;;;;;;;19.93;18.20;;;5.90;99.90;;;;;;5061862;28;20459;-70
2023/01/27 13:12:22;;;;;;;20.03;18.13;;;5.90;99.90;;;;;;5068494;28;20464;-69
2023/01/27 13:14:52;;;;;;;19.73;18.10;;;5.80;99.90;;;;;;5066458;28;20466;-69
2023/01/27 13:17:43;;;;;;;18.27;16.77;;;5.70;99.90;;;;;;5062680;28;20998;-69
2023/01/27 13:20:19;;;;;;;21.80;19.60;;;5.60;99.90;;;;;;5061411;28;20990;-69